Honghai — XUBU8 — position and weather

sailwx.info

Track history (hours):
 
Tides and Currents Weather Stations Pressure Air Temp Water Temp Dewpoint Dewpoint Depression Visibility Wind Speed Wind Dir Waves Ship Positions

Honghai

Last reported at 2015-Jul-07 12:31 UTC. Time now 2015-Jul-07 13:16 UTC.
Position N 34°12' E 135°07'.

Length 72 m; draft 4 m.

Type: Cargo ship. MMSI: 515501000.

Date/timePositionNaut miles runAvg speedWind from/ knotsBaromVisibWave heightAir tempDewpointWater temp
2015-Jul-07 12:31N 34°12' E 135°07'0 0.0
2015-Jul-07 11:28N 34°12' E 135°07'0 0.0
2015-Jul-07 10:31N 34°12' E 135°07'0 0.1
2015-Jul-07 09:25N 34°12' E 135°07'0 0.1
2015-Jul-07 08:31N 34°12' E 135°07'0 0.0
2015-Jul-07 07:31N 34°12' E 135°07'0 0.0
2015-Jul-07 06:31N 34°12' E 135°07'0 0.0
2015-Jul-07 05:25N 34°12' E 135°07'0 0.0
2015-Jul-07 04:31N 34°12' E 135°07'4 4.1
2015-Jul-07 03:33N 34°14' E 135°03'18 8.2
2015-Jul-07 01:23N 34°32' E 135°04'6 7.1
2015-Jul-07 00:33N 34°37' E 135°00'  
2015-Jul-03 22:04N 31°03' E 122°58'4 8.0
2015-Jul-03 21:33N 31°00' E 122°54'49 9.5
2015-Jul-03 16:25N 31°07' E 121°57'6 6.5
2015-Jul-03 15:33N 31°10' E 121°51'7 6.6
2015-Jul-03 14:33N 31°15' E 121°46'9 9.1
2015-Jul-03 13:33N 31°21' E 121°39'1010.4
2015-Jul-03 12:33N 31°27' E 121°29'1111.0
2015-Jul-03 11:33N 31°34' E 121°19'6 6.0
2015-Jul-03 10:31N 31°38' E 121°14'0 0.0
2015-Jul-03 09:28N 31°38' E 121°14'0 0.0
2015-Jul-03 08:28N 31°38' E 121°14'0 0.0
2015-Jul-03 07:31N 31°38' E 121°14'0 0.0
2015-Jul-03 06:22N 31°38' E 121°14'0 0.0
2015-Jul-03 05:28N 31°38' E 121°14'0 0.0
2015-Jul-03 04:28N 31°38' E 121°14'0 0.0
2015-Jul-03 03:28N 31°38' E 121°14'0 0.0
2015-Jul-03 02:31N 31°38' E 121°14'0 0.0
2015-Jul-03 01:31N 31°38' E 121°14'1 1.6
2015-Jul-03 00:33N 31°38' E 121°15'0 0.3
2015-Jul-02 23:16N 31°39' E 121°16'0 0.0
2015-Jul-02 22:31N 31°39' E 121°16'0 0.0
2015-Jul-02 21:31N 31°39' E 121°16'0 0.0
2015-Jul-02 20:25N 31°39' E 121°16'0 0.1
2015-Jul-02 19:25N 31°39' E 121°16'0 0.1
2015-Jul-02 18:31N 31°39' E 121°16'0 0.0
2015-Jul-02 17:31N 31°39' E 121°16'0 0.0
2015-Jul-02 16:19N 31°39' E 121°16'0 0.0
2015-Jul-02 15:28N 31°39' E 121°16'0 0.0
2015-Jul-02 14:28N 31°39' E 121°16'0 0.1
2015-Jul-02 13:31N 31°39' E 121°16'0 0.0
2015-Jul-02 12:31N 31°39' E 121°16'0 0.0
2015-Jul-02 11:28N 31°39' E 121°16'0 0.0
2015-Jul-02 10:22N 31°39' E 121°16'0 0.0
2015-Jul-02 09:28N 31°39' E 121°16'0 0.0
2015-Jul-02 08:28N 31°39' E 121°16'0 0.1
2015-Jul-02 07:31N 31°39' E 121°16'0 0.1
2015-Jul-02 06:31N 31°39' E 121°16'0 0.1
2015-Jul-02 05:28N 31°39' E 121°16'1 1.4
2015-Jul-02 04:33N 31°37' E 121°17'1111.0
2015-Jul-02 03:33N 31°30' E 121°26'10 9.9
2015-Jul-02 02:32N 31°23' E 121°35'1110.9
2015-Jul-02 01:33N 31°17' E 121°45'1110.8
2015-Jul-02 00:34N 31°09' E 121°54'2010.0
2015-Jul-01 22:33N 31°03' E 122°16'15 6.5
2015-Jul-01 20:10N 30°57' E 122°33'8 8.3
2015-Jul-01 19:10N 30°49' E 122°35'41 8.6
2015-Jul-01 14:24N 30°08' E 122°36'39 9.6
2015-Jul-01 10:20N 29°29' E 122°28'  
Track history (hours):
 
Tides and Currents Weather Stations Pressure Air Temp Water Temp Dewpoint Dewpoint Depression Visibility Wind Speed Wind Dir Waves Ship Positions

Honghai

Last reported at 2015-Jul-07 12:31 UTC. Time now 2015-Jul-07 13:16 UTC.
Position N 34°12' E 135°07'.

Length 72 m; draft 4 m.

Type: Cargo ship. MMSI: 515501000.

Date/timePositionNaut miles runAvg speedWind from/ knotsBaromVisibWave heightAir tempDewpointWater temp
2015-Jul-07 12:31N 34°12' E 135°07'0 0.0
2015-Jul-07 11:28N 34°12' E 135°07'0 0.0
2015-Jul-07 10:31N 34°12' E 135°07'0 0.1
2015-Jul-07 09:25N 34°12' E 135°07'0 0.1
2015-Jul-07 08:31N 34°12' E 135°07'0 0.0
2015-Jul-07 07:31N 34°12' E 135°07'0 0.0
2015-Jul-07 06:31N 34°12' E 135°07'0 0.0
2015-Jul-07 05:25N 34°12' E 135°07'0 0.0
2015-Jul-07 04:31N 34°12' E 135°07'4 4.1
2015-Jul-07 03:33N 34°14' E 135°03'18 8.2
2015-Jul-07 01:23N 34°32' E 135°04'6 7.1
2015-Jul-07 00:33N 34°37' E 135°00'  
2015-Jul-03 22:04N 31°03' E 122°58'4 8.0
2015-Jul-03 21:33N 31°00' E 122°54'49 9.5
2015-Jul-03 16:25N 31°07' E 121°57'6 6.5
2015-Jul-03 15:33N 31°10' E 121°51'7 6.6
2015-Jul-03 14:33N 31°15' E 121°46'9 9.1
2015-Jul-03 13:33N 31°21' E 121°39'1010.4
2015-Jul-03 12:33N 31°27' E 121°29'1111.0
2015-Jul-03 11:33N 31°34' E 121°19'6 6.0
2015-Jul-03 10:31N 31°38' E 121°14'0 0.0
2015-Jul-03 09:28N 31°38' E 121°14'0 0.0
2015-Jul-03 08:28N 31°38' E 121°14'0 0.0
2015-Jul-03 07:31N 31°38' E 121°14'0 0.0
2015-Jul-03 06:22N 31°38' E 121°14'0 0.0
2015-Jul-03 05:28N 31°38' E 121°14'0 0.0
2015-Jul-03 04:28N 31°38' E 121°14'0 0.0
2015-Jul-03 03:28N 31°38' E 121°14'0 0.0
2015-Jul-03 02:31N 31°38' E 121°14'0 0.0
2015-Jul-03 01:31N 31°38' E 121°14'1 1.6
2015-Jul-03 00:33N 31°38' E 121°15'0 0.3
2015-Jul-02 23:16N 31°39' E 121°16'0 0.0
2015-Jul-02 22:31N 31°39' E 121°16'0 0.0
2015-Jul-02 21:31N 31°39' E 121°16'0 0.0
2015-Jul-02 20:25N 31°39' E 121°16'0 0.1
2015-Jul-02 19:25N 31°39' E 121°16'0 0.1
2015-Jul-02 18:31N 31°39' E 121°16'0 0.0
2015-Jul-02 17:31N 31°39' E 121°16'0 0.0
2015-Jul-02 16:19N 31°39' E 121°16'0 0.0
2015-Jul-02 15:28N 31°39' E 121°16'0 0.0
2015-Jul-02 14:28N 31°39' E 121°16'0 0.1
2015-Jul-02 13:31N 31°39' E 121°16'0 0.0
2015-Jul-02 12:31N 31°39' E 121°16'0 0.0
2015-Jul-02 11:28N 31°39' E 121°16'0 0.0
2015-Jul-02 10:22N 31°39' E 121°16'0 0.0
2015-Jul-02 09:28N 31°39' E 121°16'0 0.0
2015-Jul-02 08:28N 31°39' E 121°16'0 0.1
2015-Jul-02 07:31N 31°39' E 121°16'0 0.1
2015-Jul-02 06:31N 31°39' E 121°16'0 0.1
2015-Jul-02 05:28N 31°39' E 121°16'1 1.4
2015-Jul-02 04:33N 31°37' E 121°17'1111.0
2015-Jul-02 03:33N 31°30' E 121°26'10 9.9
2015-Jul-02 02:32N 31°23' E 121°35'1110.9
2015-Jul-02 01:33N 31°17' E 121°45'1110.8
2015-Jul-02 00:34N 31°09' E 121°54'2010.0
2015-Jul-01 22:33N 31°03' E 122°16'15 6.5
2015-Jul-01 20:10N 30°57' E 122°33'8 8.3
2015-Jul-01 19:10N 30°49' E 122°35'41 8.6
2015-Jul-01 14:24N 30°08' E 122°36'39 9.6
2015-Jul-01 10:20N 29°29' E 122°28'  

Dump ship's entire track history